Back to top

Casper, Wyoming Weather

Natrona County International Airport, Casper, WY: 5/20/2019 03:21
Visibility2 statute milessnow flakestree obscured by hazy, misty vapor
View 7-Day Forecast
Area Summary
Sky/CloudsSolid Overcast at 400ft
Weather [last 24 hours]Light snow, mist [snow ended 16:13; snow ended 23:04; snow began 01:09 ]
Pressure29.87 in.Hg (1012 hPa)
Dew Point32 °F (0 °C)
Relative Humidity100 %
Hourly Precipitation0.01 in. (0.254 mm)
Last 24-Hour Precip.0.11 in. (2.794 mm)
Reading TimePrecipitation
6-hr ending 5/19@23:530.15 in. (3.81 mm)
6-hr ending 5/19@17:53Trace
6-hr ending 5/19@05:53Trace
24-hr ending 5/19@05:530.34 in. (8.636 mm)
Temperature32 °F (0 °C)red thermometer
Wind Chill23 °F (-5 °C)
Reading TimeMinimum to Maximum Temperature
6-hr ending 5/19@23:5332 °F to 36 °F (0 °C to 2.2 °C)
6-hr ending 5/19@17:5335.1 °F to 39 °F (1.7 °C to 3.9 °C)
6-hr ending 5/19@11:5328.9 °F to 35.1 °F (-1.7 °C to 1.7 °C)
6-hr ending 5/19@05:5328.9 °F to 30 °F (-1.7 °C to -1.1 °C)
Wind11.5 MPH (10 KT) green arrow pointing 90 degrees
Wind FromEast (100 Degrees)
Twilight Begins05:04Sunshine Yesterday
Sunrise05:37N/A
Sunset20:28
Twilight Ends21:01
METARKCPR 200921Z AUTO 10010KT 2SM -SN BR OVC004 00/00 A2987 RMK AO2 P0001 T00000000